sensor_id;sensor_type;location;lat;lon;timestamp;pressure;altitude;pressure_sealevel;temperature;humidity
4024;BME280;2026;51.002;13.668;2024-02-26T00:02:02;97840.78;;;1.65;72.85
4024;BME280;2026;51.002;13.668;2024-02-26T00:07:05;97837.38;;;1.33;74.74
4024;BME280;2026;51.002;13.668;2024-02-26T00:12:10;97841.66;;;1.57;73.24
4024;BME280;2026;51.002;13.668;2024-02-26T00:17:13;97839.72;;;1.51;73.69
4024;BME280;2026;51.002;13.668;2024-02-26T00:22:16;97837.75;;;1.53;73.02
4024;BME280;2026;51.002;13.668;2024-02-26T00:27:20;97834.69;;;1.50;72.90
4024;BME280;2026;51.002;13.668;2024-02-26T00:32:23;97832.00;;;1.03;74.88
4024;BME280;2026;51.002;13.668;2024-02-26T00:37:26;97824.47;;;1.17;74.94
4024;BME280;2026;51.002;13.668;2024-02-26T00:42:30;97821.06;;;1.16;74.54
4024;BME280;2026;51.002;13.668;2024-02-26T00:47:33;97806.50;;;1.30;73.90
4024;BME280;2026;51.002;13.668;2024-02-26T00:52:36;97813.47;;;1.06;75.09
4024;BME280;2026;51.002;13.668;2024-02-26T00:57:41;97812.19;;;0.94;75.63
4024;BME280;2026;51.002;13.668;2024-02-26T01:02:44;97808.25;;;1.06;75.05
4024;BME280;2026;51.002;13.668;2024-02-26T01:07:48;97800.50;;;0.98;74.35
4024;BME280;2026;51.002;13.668;2024-02-26T01:12:52;97795.63;;;0.95;74.44
4024;BME280;2026;51.002;13.668;2024-02-26T01:17:55;97795.03;;;0.85;74.36
4024;BME280;2026;51.002;13.668;2024-02-26T01:22:58;97786.50;;;0.99;73.83
4024;BME280;2026;51.002;13.668;2024-02-26T01:28:03;97787.19;;;0.93;74.08
4024;BME280;2026;51.002;13.668;2024-02-26T01:33:07;97774.19;;;0.93;73.90
4024;BME280;2026;51.002;13.668;2024-02-26T01:38:10;97783.00;;;0.84;74.39
4024;BME280;2026;51.002;13.668;2024-02-26T01:43:14;97774.66;;;0.57;75.16
4024;BME280;2026;51.002;13.668;2024-02-26T01:48:17;97769.25;;;0.67;74.88
4024;BME280;2026;51.002;13.668;2024-02-26T01:53:21;97757.94;;;0.60;74.77
4024;BME280;2026;51.002;13.668;2024-02-26T01:58:25;97752.50;;;0.69;74.79
4024;BME280;2026;51.002;13.668;2024-02-26T02:03:28;97749.13;;;0.61;75.13
4024;BME280;2026;51.002;13.668;2024-02-26T02:08:32;97747.75;;;0.42;75.40
4024;BME280;2026;51.002;13.668;2024-02-26T02:13:38;97750.66;;;0.47;75.25
4024;BME280;2026;51.002;13.668;2024-02-26T02:18:41;97745.66;;;0.37;75.66
4024;BME280;2026;51.002;13.668;2024-02-26T02:23:45;97729.56;;;0.42;74.80
4024;BME280;2026;51.002;13.668;2024-02-26T02:28:50;97739.09;;;0.49;74.69
4024;BME280;2026;51.002;13.668;2024-02-26T02:33:53;97738.50;;;0.39;75.74
4024;BME280;2026;51.002;13.668;2024-02-26T02:38:58;97736.19;;;0.44;75.43
4024;BME280;2026;51.002;13.668;2024-02-26T02:44:01;97729.91;;;0.30;75.86
4024;BME280;2026;51.002;13.668;2024-02-26T02:49:04;97728.47;;;0.20;75.79
4024;BME280;2026;51.002;13.668;2024-02-26T02:54:12;97731.22;;;0.26;75.21
4024;BME280;2026;51.002;13.668;2024-02-26T02:59:15;97735.59;;;0.34;74.94
4024;BME280;2026;51.002;13.668;2024-02-26T03:04:18;97744.06;;;0.20;75.52
4024;BME280;2026;51.002;13.668;2024-02-26T03:09:22;97737.41;;;0.17;75.34
4024;BME280;2026;51.002;13.668;2024-02-26T03:14:25;97751.22;;;0.09;75.62
4024;BME280;2026;51.002;13.668;2024-02-26T03:19:28;97732.44;;;-0.09;76.67
4024;BME280;2026;51.002;13.668;2024-02-26T03:24:32;97747.34;;;0.13;75.32
4024;BME280;2026;51.002;13.668;2024-02-26T03:29:35;97758.22;;;0.09;76.02
4024;BME280;2026;51.002;13.668;2024-02-26T03:34:38;97757.59;;;-0.02;75.79
4024;BME280;2026;51.002;13.668;2024-02-26T03:39:43;97767.28;;;0.05;75.42
4024;BME280;2026;51.002;13.668;2024-02-26T03:44:46;97765.00;;;0.10;75.60
4024;BME280;2026;51.002;13.668;2024-02-26T03:49:49;97765.69;;;0.12;75.91
4024;BME280;2026;51.002;13.668;2024-02-26T03:54:53;97765.88;;;-0.06;76.69
4024;BME280;2026;51.002;13.668;2024-02-26T03:59:56;97766.03;;;0.01;76.37
4024;BME280;2026;51.002;13.668;2024-02-26T04:05:00;97782.72;;;-0.10;76.42
4024;BME280;2026;51.002;13.668;2024-02-26T04:10:08;97772.19;;;-0.17;76.63
4024;BME280;2026;51.002;13.668;2024-02-26T04:15:11;97775.63;;;-0.16;76.77
4024;BME280;2026;51.002;13.668;2024-02-26T04:20:15;97774.78;;;-0.25;77.03
4024;BME280;2026;51.002;13.668;2024-02-26T04:25:20;97779.97;;;-0.17;76.38
4024;BME280;2026;51.002;13.668;2024-02-26T04:30:23;97767.66;;;-0.40;77.33
4024;BME280;2026;51.002;13.668;2024-02-26T04:35:26;97774.31;;;-0.29;76.66
4024;BME280;2026;51.002;13.668;2024-02-26T04:40:30;97771.22;;;-0.24;76.37
4024;BME280;2026;51.002;13.668;2024-02-26T04:45:33;97769.59;;;-0.33;77.19
4024;BME280;2026;51.002;13.668;2024-02-26T04:50:36;97775.25;;;-0.30;76.79
4024;BME280;2026;51.002;13.668;2024-02-26T04:55:40;97778.53;;;-0.44;76.50
4024;BME280;2026;51.002;13.668;2024-02-26T05:00:43;97786.31;;;-0.44;76.78
4024;BME280;2026;51.002;13.668;2024-02-26T05:05:46;97798.66;;;-0.38;76.68
4024;BME280;2026;51.002;13.668;2024-02-26T05:10:51;97786.63;;;-0.47;76.62
4024;BME280;2026;51.002;13.668;2024-02-26T05:15:54;97799.91;;;-0.59;77.10
4024;BME280;2026;51.002;13.668;2024-02-26T05:20:57;97796.81;;;-0.62;78.33
4024;BME280;2026;51.002;13.668;2024-02-26T05:26:01;97797.84;;;-0.98;81.09
4024;BME280;2026;51.002;13.668;2024-02-26T05:31:04;97804.91;;;-0.65;79.87
4024;BME280;2026;51.002;13.668;2024-02-26T05:36:07;97816.44;;;-0.60;80.60
4024;BME280;2026;51.002;13.668;2024-02-26T05:41:12;97815.66;;;-0.44;79.78
4024;BME280;2026;51.002;13.668;2024-02-26T05:46:16;97812.41;;;-0.46;78.77
4024;BME280;2026;51.002;13.668;2024-02-26T05:51:19;97816.97;;;-0.48;77.91
4024;BME280;2026;51.002;13.668;2024-02-26T05:56:23;97828.97;;;-0.39;77.72
4024;BME280;2026;51.002;13.668;2024-02-26T06:01:26;97818.06;;;-0.50;78.20
4024;BME280;2026;51.002;13.668;2024-02-26T06:06:29;97816.78;;;-0.63;79.81
4024;BME280;2026;51.002;13.668;2024-02-26T06:11:34;97819.41;;;-0.46;79.84
4024;BME280;2026;51.002;13.668;2024-02-26T06:16:37;97823.44;;;-0.52;81.44
4024;BME280;2026;51.002;13.668;2024-02-26T06:21:40;97825.06;;;-0.43;81.54
4024;BME280;2026;51.002;13.668;2024-02-26T06:26:44;97823.63;;;-0.12;80.89
4024;BME280;2026;51.002;13.668;2024-02-26T06:31:47;97830.63;;;0.04;80.98
4024;BME280;2026;51.002;13.668;2024-02-26T06:36:52;97831.09;;;0.07;80.90
4024;BME280;2026;51.002;13.668;2024-02-26T06:41:56;97828.81;;;0.29;80.45
4024;BME280;2026;51.002;13.668;2024-02-26T06:47:02;97828.91;;;0.60;80.19
4024;BME280;2026;51.002;13.668;2024-02-26T06:52:05;97825.50;;;0.99;79.39
4024;BME280;2026;51.002;13.668;2024-02-26T06:57:10;97814.31;;;1.30;78.92
4024;BME280;2026;51.002;13.668;2024-02-26T07:02:13;97825.59;;;1.69;78.08
4024;BME280;2026;51.002;13.668;2024-02-26T07:07:17;97830.13;;;2.36;75.92
4024;BME280;2026;51.002;13.668;2024-02-26T07:12:22;97829.88;;;2.75;75.39
4024;BME280;2026;51.002;13.668;2024-02-26T07:17:25;97831.75;;;2.52;75.74
4024;BME280;2026;51.002;13.668;2024-02-26T07:22:28;97829.69;;;2.62;75.55
4024;BME280;2026;51.002;13.668;2024-02-26T07:27:32;97827.00;;;2.85;75.48
4024;BME280;2026;51.002;13.668;2024-02-26T07:32:35;97826.66;;;2.73;76.41
4024;BME280;2026;51.002;13.668;2024-02-26T07:37:38;97825.47;;;2.76;76.84
4024;BME280;2026;51.002;13.668;2024-02-26T07:42:42;97828.53;;;3.31;76.47
4024;BME280;2026;51.002;13.668;2024-02-26T07:47:45;97839.66;;;3.98;74.94
4024;BME280;2026;51.002;13.668;2024-02-26T07:52:48;97830.69;;;4.57;74.29
4024;BME280;2026;51.002;13.668;2024-02-26T07:57:54;97831.63;;;4.84;73.61
4024;BME280;2026;51.002;13.668;2024-02-26T08:02:57;97829.59;;;5.28;73.08
4024;BME280;2026;51.002;13.668;2024-02-26T08:08:00;97825.84;;;5.50;73.15
4024;BME280;2026;51.002;13.668;2024-02-26T08:13:04;97825.06;;;5.63;70.74
4024;BME280;2026;51.002;13.668;2024-02-26T08:18:07;97835.19;;;5.80;72.94
4024;BME280;2026;51.002;13.668;2024-02-26T08:23:10;97838.28;;;5.35;75.88
4024;BME280;2026;51.002;13.668;2024-02-26T08:28:15;97851.75;;;6.00;73.63
4024;BME280;2026;51.002;13.668;2024-02-26T08:33:19;97838.25;;;6.10;74.16
4024;BME280;2026;51.002;13.668;2024-02-26T08:38:22;97845.53;;;6.21;73.83
4024;BME280;2026;51.002;13.668;2024-02-26T08:43:27;97850.97;;;6.46;72.48
4024;BME280;2026;51.002;13.668;2024-02-26T08:48:30;97851.75;;;6.80;72.33
4024;BME280;2026;51.002;13.668;2024-02-26T08:53:33;97861.28;;;6.28;73.28
4024;BME280;2026;51.002;13.668;2024-02-26T08:58:45;97849.94;;;6.68;73.50
4024;BME280;2026;51.002;13.668;2024-02-26T09:03:50;97851.22;;;7.24;70.56
4024;BME280;2026;51.002;13.668;2024-02-26T09:08:53;97847.63;;;7.56;70.27
4024;BME280;2026;51.002;13.668;2024-02-26T09:14:02;97837.63;;;7.33;69.48
4024;BME280;2026;51.002;13.668;2024-02-26T09:19:05;97843.16;;;7.57;69.26
4024;BME280;2026;51.002;13.668;2024-02-26T09:24:09;97851.78;;;7.71;68.33
4024;BME280;2026;51.002;13.668;2024-02-26T09:29:13;97853.53;;;7.84;67.74
4024;BME280;2026;51.002;13.668;2024-02-26T09:34:16;97862.31;;;8.03;67.81
4024;BME280;2026;51.002;13.668;2024-02-26T09:39:19;97853.91;;;8.19;66.60
4024;BME280;2026;51.002;13.668;2024-02-26T09:44:27;97861.06;;;8.05;67.55
4024;BME280;2026;51.002;13.668;2024-02-26T09:49:32;97860.78;;;8.20;66.55
4024;BME280;2026;51.002;13.668;2024-02-26T09:54:35;97866.13;;;8.64;66.06
4024;BME280;2026;51.002;13.668;2024-02-26T09:59:40;97875.28;;;8.98;64.49
4024;BME280;2026;51.002;13.668;2024-02-26T10:04:47;97869.16;;;8.86;64.27
4024;BME280;2026;51.002;13.668;2024-02-26T10:09:53;97886.09;;;8.90;64.20
4024;BME280;2026;51.002;13.668;2024-02-26T10:14:57;97887.72;;;8.91;64.01
4024;BME280;2026;51.002;13.668;2024-02-26T10:20:11;97884.94;;;8.67;65.02
4024;BME280;2026;51.002;13.668;2024-02-26T10:25:15;97883.72;;;9.07;63.84
4024;BME280;2026;51.002;13.668;2024-02-26T10:30:20;97880.06;;;9.08;64.07
4024;BME280;2026;51.002;13.668;2024-02-26T10:35:24;97874.28;;;9.18;63.87
4024;BME280;2026;51.002;13.668;2024-02-26T10:40:28;97878.88;;;9.41;62.95
4024;BME280;2026;51.002;13.668;2024-02-26T10:45:33;97886.50;;;9.31;63.33
4024;BME280;2026;51.002;13.668;2024-02-26T10:50:39;97877.44;;;9.45;63.52
4024;BME280;2026;51.002;13.668;2024-02-26T10:55:43;97885.09;;;9.65;62.25
4024;BME280;2026;51.002;13.668;2024-02-26T11:00:50;97884.06;;;9.48;62.75
4024;BME280;2026;51.002;13.668;2024-02-26T11:05:54;97884.34;;;9.76;61.46
4024;BME280;2026;51.002;13.668;2024-02-26T11:10:59;97890.50;;;9.70;62.06
4024;BME280;2026;51.002;13.668;2024-02-26T11:16:04;97890.81;;;9.44;62.91
4024;BME280;2026;51.002;13.668;2024-02-26T11:21:10;97874.78;;;9.08;63.69
4024;BME280;2026;51.002;13.668;2024-02-26T11:26:15;97875.78;;;8.89;63.30
4024;BME280;2026;51.002;13.668;2024-02-26T11:31:24;97880.22;;;9.32;62.48
4024;BME280;2026;51.002;13.668;2024-02-26T11:36:29;97884.72;;;9.43;63.29
4024;BME280;2026;51.002;13.668;2024-02-26T11:41:32;97880.47;;;9.60;61.79
4024;BME280;2026;51.002;13.668;2024-02-26T11:46:40;97875.56;;;9.64;62.36
4024;BME280;2026;51.002;13.668;2024-02-26T11:51:50;97872.41;;;9.86;60.53
4024;BME280;2026;51.002;13.668;2024-02-26T11:56:54;97869.84;;;10.09;60.13
4024;BME280;2026;51.002;13.668;2024-02-26T12:01:58;97877.47;;;9.87;61.25
4024;BME280;2026;51.002;13.668;2024-02-26T12:07:04;97865.72;;;9.71;60.38
4024;BME280;2026;51.002;13.668;2024-02-26T12:12:09;97889.75;;;9.82;60.52
4024;BME280;2026;51.002;13.668;2024-02-26T12:17:20;97891.47;;;9.88;60.34
4024;BME280;2026;51.002;13.668;2024-02-26T12:22:24;97890.66;;;9.87;59.81
4024;BME280;2026;51.002;13.668;2024-02-26T12:27:27;97904.38;;;9.77;59.98
4024;BME280;2026;51.002;13.668;2024-02-26T12:32:32;97895.72;;;9.40;61.14
4024;BME280;2026;51.002;13.668;2024-02-26T12:37:35;97899.91;;;9.78;60.26
4024;BME280;2026;51.002;13.668;2024-02-26T12:42:42;97897.34;;;9.71;60.45
4024;BME280;2026;51.002;13.668;2024-02-26T12:47:46;97892.94;;;9.84;59.79
4024;BME280;2026;51.002;13.668;2024-02-26T12:52:51;97904.28;;;9.84;59.56
4024;BME280;2026;51.002;13.668;2024-02-26T12:57:54;97897.38;;;9.53;61.33
4024;BME280;2026;51.002;13.668;2024-02-26T13:02:59;97899.28;;;9.64;60.15
4024;BME280;2026;51.002;13.668;2024-02-26T13:08:03;97902.53;;;9.78;59.38
4024;BME280;2026;51.002;13.668;2024-02-26T13:13:10;97905.81;;;9.62;59.89
4024;BME280;2026;51.002;13.668;2024-02-26T13:18:14;97909.25;;;9.62;60.70
4024;BME280;2026;51.002;13.668;2024-02-26T13:23:18;97919.84;;;9.74;59.88
4024;BME280;2026;51.002;13.668;2024-02-26T13:28:21;97924.16;;;9.87;59.45
4024;BME280;2026;51.002;13.668;2024-02-26T13:33:28;97925.94;;;9.56;59.96
4024;BME280;2026;51.002;13.668;2024-02-26T13:38:32;97926.59;;;9.51;60.60
4024;BME280;2026;51.002;13.668;2024-02-26T13:43:35;97935.53;;;9.69;60.47
4024;BME280;2026;51.002;13.668;2024-02-26T13:48:39;97935.84;;;9.60;60.17
4024;BME280;2026;51.002;13.668;2024-02-26T13:53:43;97935.63;;;9.62;60.31
4024;BME280;2026;51.002;13.668;2024-02-26T13:58:45;97941.38;;;9.89;59.41
4024;BME280;2026;51.002;13.668;2024-02-26T14:03:51;97947.53;;;9.65;59.52
4024;BME280;2026;51.002;13.668;2024-02-26T14:08:57;97952.09;;;9.57;59.92
4024;BME280;2026;51.002;13.668;2024-02-26T14:13:59;97963.00;;;9.61;59.95
4024;BME280;2026;51.002;13.668;2024-02-26T14:19:04;97964.84;;;9.60;59.82
4024;BME280;2026;51.002;13.668;2024-02-26T14:24:07;97966.84;;;9.65;59.90
4024;BME280;2026;51.002;13.668;2024-02-26T14:29:10;97967.91;;;9.76;59.81
4024;BME280;2026;51.002;13.668;2024-02-26T14:34:14;97975.59;;;9.77;60.02
4024;BME280;2026;51.002;13.668;2024-02-26T14:39:19;97980.94;;;9.89;59.16
4024;BME280;2026;51.002;13.668;2024-02-26T14:44:22;97999.78;;;9.74;59.68
4024;BME280;2026;51.002;13.668;2024-02-26T14:49:27;98011.66;;;9.84;59.90
4024;BME280;2026;51.002;13.668;2024-02-26T14:54:32;98018.56;;;9.85;60.42
4024;BME280;2026;51.002;13.668;2024-02-26T14:59:39;98023.22;;;9.83;60.05
4024;BME280;2026;51.002;13.668;2024-02-26T15:04:43;98023.59;;;9.86;59.96
4024;BME280;2026;51.002;13.668;2024-02-26T15:09:47;98016.94;;;9.84;59.88
4024;BME280;2026;51.002;13.668;2024-02-26T15:14:50;98017.94;;;9.83;59.38
4024;BME280;2026;51.002;13.668;2024-02-26T15:19:54;98016.22;;;9.76;59.25
4024;BME280;2026;51.002;13.668;2024-02-26T15:24:58;98018.75;;;9.65;59.18
4024;BME280;2026;51.002;13.668;2024-02-26T15:30:02;98020.44;;;9.40;60.63
4024;BME280;2026;51.002;13.668;2024-02-26T15:35:07;98020.38;;;9.47;61.23
4024;BME280;2026;51.002;13.668;2024-02-26T15:40:11;98022.50;;;9.57;60.25
4024;BME280;2026;51.002;13.668;2024-02-26T15:45:15;98023.16;;;9.52;60.47
4024;BME280;2026;51.002;13.668;2024-02-26T15:50:19;98040.13;;;9.13;61.35
4024;BME280;2026;51.002;13.668;2024-02-26T15:55:22;98046.69;;;9.29;61.06
4024;BME280;2026;51.002;13.668;2024-02-26T16:00:25;98037.09;;;9.34;61.46
4024;BME280;2026;51.002;13.668;2024-02-26T16:05:30;98045.97;;;9.40;61.08
4024;BME280;2026;51.002;13.668;2024-02-26T16:10:33;98047.28;;;9.31;62.00
4024;BME280;2026;51.002;13.668;2024-02-26T16:15:37;98051.81;;;9.23;63.26
4024;BME280;2026;51.002;13.668;2024-02-26T16:20:41;98057.09;;;9.23;63.51
4024;BME280;2026;51.002;13.668;2024-02-26T16:25:44;98061.38;;;9.18;63.84
4024;BME280;2026;51.002;13.668;2024-02-26T16:30:51;98078.66;;;9.14;64.28
4024;BME280;2026;51.002;13.668;2024-02-26T16:35:57;98084.19;;;9.05;64.97
4024;BME280;2026;51.002;13.668;2024-02-26T16:41:00;98091.31;;;8.98;64.78
4024;BME280;2026;51.002;13.668;2024-02-26T16:46:03;98095.25;;;8.89;64.80
4024;BME280;2026;51.002;13.668;2024-02-26T16:51:07;98111.03;;;8.89;64.77
4024;BME280;2026;51.002;13.668;2024-02-26T16:56:10;98122.63;;;8.81;64.94
4024;BME280;2026;51.002;13.668;2024-02-26T17:01:14;98122.69;;;8.68;65.21
4024;BME280;2026;51.002;13.668;2024-02-26T17:06:18;98135.06;;;8.67;65.15
4024;BME280;2026;51.002;13.668;2024-02-26T17:11:25;98145.84;;;8.59;65.76
4024;BME280;2026;51.002;13.668;2024-02-26T17:16:30;98155.94;;;8.69;65.32
4024;BME280;2026;51.002;13.668;2024-02-26T17:21:35;98155.56;;;8.52;66.01
4024;BME280;2026;51.002;13.668;2024-02-26T17:26:39;98162.25;;;8.55;65.98
4024;BME280;2026;51.002;13.668;2024-02-26T17:31:42;98167.13;;;8.51;65.92
4024;BME280;2026;51.002;13.668;2024-02-26T17:36:47;98178.69;;;8.50;66.00
4024;BME280;2026;51.002;13.668;2024-02-26T17:41:50;98178.69;;;8.50;65.81
4024;BME280;2026;51.002;13.668;2024-02-26T17:46:53;98180.50;;;8.49;65.90
4024;BME280;2026;51.002;13.668;2024-02-26T17:51:57;98181.72;;;8.47;66.19
4024;BME280;2026;51.002;13.668;2024-02-26T17:57:00;98181.13;;;8.45;66.21
4024;BME280;2026;51.002;13.668;2024-02-26T18:02:03;98186.97;;;8.40;66.26
4024;BME280;2026;51.002;13.668;2024-02-26T18:07:08;98189.22;;;8.37;66.21
4024;BME280;2026;51.002;13.668;2024-02-26T18:12:14;98191.47;;;8.26;67.00
4024;BME280;2026;51.002;13.668;2024-02-26T18:17:17;98192.50;;;8.19;66.92
4024;BME280;2026;51.002;13.668;2024-02-26T18:22:25;98197.16;;;8.17;67.01
4024;BME280;2026;51.002;13.668;2024-02-26T18:27:28;98191.31;;;8.08;67.96
4024;BME280;2026;51.002;13.668;2024-02-26T18:32:33;98196.38;;;8.03;67.37
4024;BME280;2026;51.002;13.668;2024-02-26T18:37:37;98196.78;;;8.00;67.48
4024;BME280;2026;51.002;13.668;2024-02-26T18:42:40;98206.50;;;7.86;67.95
4024;BME280;2026;51.002;13.668;2024-02-26T18:47:43;98211.75;;;7.99;67.65
4024;BME280;2026;51.002;13.668;2024-02-26T18:52:47;98208.72;;;7.89;67.89
4024;BME280;2026;51.002;13.668;2024-02-26T18:57:50;98214.38;;;7.79;67.82
4024;BME280;2026;51.002;13.668;2024-02-26T19:02:53;98224.09;;;7.72;67.86
4024;BME280;2026;51.002;13.668;2024-02-26T19:07:58;98222.47;;;7.57;67.84
4024;BME280;2026;51.002;13.668;2024-02-26T19:13:03;98221.06;;;7.48;68.04
4024;BME280;2026;51.002;13.668;2024-02-26T19:18:10;98212.34;;;7.34;68.41
4024;BME280;2026;51.002;13.668;2024-02-26T19:23:15;98225.63;;;7.06;68.59
4024;BME280;2026;51.002;13.668;2024-02-26T19:28:18;98227.81;;;7.02;68.97
4024;BME280;2026;51.002;13.668;2024-02-26T19:33:21;98224.16;;;6.83;69.00
4024;BME280;2026;51.002;13.668;2024-02-26T19:38:25;98231.66;;;7.00;68.37
4024;BME280;2026;51.002;13.668;2024-02-26T19:43:28;98239.75;;;6.57;69.51
4024;BME280;2026;51.002;13.668;2024-02-26T19:48:31;98245.22;;;6.27;71.04
4024;BME280;2026;51.002;13.668;2024-02-26T19:53:36;98252.91;;;6.00;71.75
4024;BME280;2026;51.002;13.668;2024-02-26T19:58:39;98253.38;;;6.10;71.32
4024;BME280;2026;51.002;13.668;2024-02-26T20:03:42;98259.47;;;6.11;71.34
4024;BME280;2026;51.002;13.668;2024-02-26T20:08:51;98277.19;;;6.09;71.44
4024;BME280;2026;51.002;13.668;2024-02-26T20:13:54;98286.81;;;5.80;72.80
4024;BME280;2026;51.002;13.668;2024-02-26T20:18:57;98294.16;;;6.13;71.35
4024;BME280;2026;51.002;13.668;2024-02-26T20:24:02;98300.03;;;5.94;72.20
4024;BME280;2026;51.002;13.668;2024-02-26T20:29:05;98299.75;;;6.03;72.25
4024;BME280;2026;51.002;13.668;2024-02-26T20:34:08;98312.34;;;6.15;71.76
4024;BME280;2026;51.002;13.668;2024-02-26T20:39:15;98318.25;;;6.23;71.83
4024;BME280;2026;51.002;13.668;2024-02-26T20:44:18;98321.44;;;6.19;72.18
4024;BME280;2026;51.002;13.668;2024-02-26T20:49:22;98329.91;;;6.14;72.38
4024;BME280;2026;51.002;13.668;2024-02-26T20:54:26;98330.31;;;6.18;72.41
4024;BME280;2026;51.002;13.668;2024-02-26T20:59:30;98340.31;;;6.29;71.58
4024;BME280;2026;51.002;13.668;2024-02-26T21:04:34;98342.75;;;6.09;72.50
4024;BME280;2026;51.002;13.668;2024-02-26T21:09:38;98346.69;;;5.98;73.52
4024;BME280;2026;51.002;13.668;2024-02-26T21:14:41;98361.63;;;5.98;72.68
4024;BME280;2026;51.002;13.668;2024-02-26T21:19:44;98364.53;;;5.88;72.91
4024;BME280;2026;51.002;13.668;2024-02-26T21:24:49;98369.28;;;5.78;72.93
4024;BME280;2026;51.002;13.668;2024-02-26T21:29:52;98371.50;;;5.81;72.70
4024;BME280;2026;51.002;13.668;2024-02-26T21:34:55;98369.44;;;5.76;73.17
4024;BME280;2026;51.002;13.668;2024-02-26T21:40:01;98360.22;;;5.44;74.55
4024;BME280;2026;51.002;13.668;2024-02-26T21:45:05;98368.22;;;5.57;74.26
4024;BME280;2026;51.002;13.668;2024-02-26T21:50:08;98379.38;;;5.29;75.81
4024;BME280;2026;51.002;13.668;2024-02-26T21:55:14;98392.56;;;5.36;75.54
4024;BME280;2026;51.002;13.668;2024-02-26T22:00:19;98402.16;;;5.29;76.28
4024;BME280;2026;51.002;13.668;2024-02-26T22:05:22;98403.31;;;4.96;77.40
4024;BME280;2026;51.002;13.668;2024-02-26T22:10:26;98409.66;;;5.32;75.67
4024;BME280;2026;51.002;13.668;2024-02-26T22:15:29;98412.44;;;5.45;74.84
4024;BME280;2026;51.002;13.668;2024-02-26T22:20:32;98417.41;;;5.40;74.50
4024;BME280;2026;51.002;13.668;2024-02-26T22:25:36;98417.94;;;5.35;74.67
4024;BME280;2026;51.002;13.668;2024-02-26T22:30:40;98422.84;;;5.24;75.39
4024;BME280;2026;51.002;13.668;2024-02-26T22:35:42;98425.91;;;5.27;75.65
4024;BME280;2026;51.002;13.668;2024-02-26T22:40:47;98420.56;;;5.35;74.92
4024;BME280;2026;51.002;13.668;2024-02-26T22:45:50;98418.31;;;5.32;74.74
4024;BME280;2026;51.002;13.668;2024-02-26T22:50:53;98410.91;;;5.21;75.31
4024;BME280;2026;51.002;13.668;2024-02-26T22:55:57;98437.66;;;5.02;76.28
4024;BME280;2026;51.002;13.668;2024-02-26T23:01:00;98426.75;;;4.37;78.95
4024;BME280;2026;51.002;13.668;2024-02-26T23:06:04;98435.91;;;4.94;76.36
4024;BME280;2026;51.002;13.668;2024-02-26T23:11:09;98443.13;;;4.77;77.90
4024;BME280;2026;51.002;13.668;2024-02-26T23:16:12;98437.81;;;4.85;77.30
4024;BME280;2026;51.002;13.668;2024-02-26T23:21:15;98455.69;;;5.11;76.49
4024;BME280;2026;51.002;13.668;2024-02-26T23:26:20;98440.81;;;5.12;76.16
4024;BME280;2026;51.002;13.668;2024-02-26T23:31:23;98453.72;;;4.98;77.27
4024;BME280;2026;51.002;13.668;2024-02-26T23:36:25;98450.63;;;4.80;78.16
4024;BME280;2026;51.002;13.668;2024-02-26T23:41:30;98457.75;;;5.01;77.55
4024;BME280;2026;51.002;13.668;2024-02-26T23:46:34;98455.16;;;5.16;76.92
4024;BME280;2026;51.002;13.668;2024-02-26T23:51:38;98456.81;;;4.64;79.42
4024;BME280;2026;51.002;13.668;2024-02-26T23:56:42;98452.44;;;4.94;77.70
